createdAt,value
2024-02-18T00:00:00.889Z,101672.59
2024-02-18T00:03:03.322Z,101669.78
2024-02-18T00:06:05.993Z,101665.19
2024-02-18T00:09:08.543Z,101673.84
2024-02-18T00:12:10.988Z,101658.81
2024-02-18T00:15:13.405Z,101658.38
2024-02-18T00:18:16.499Z,101666.22
2024-02-18T00:21:19.330Z,101675.66
2024-02-18T00:24:22.206Z,101678.19
2024-02-18T00:27:24.558Z,101670.91
2024-02-18T00:30:27.883Z,101673.41
2024-02-18T00:33:30.461Z,101676.91
2024-02-18T00:36:33.218Z,101670.72
2024-02-18T00:39:35.606Z,101678.47
2024-02-18T00:42:38.263Z,101673.19
2024-02-18T00:45:40.546Z,101680.13
2024-02-18T00:48:43.361Z,101681.72
2024-02-18T00:51:45.963Z,101681.72
2024-02-18T00:54:48.616Z,101690.41
2024-02-18T00:57:50.874Z,101692.06
2024-02-18T01:00:53.462Z,101683.56
2024-02-18T01:03:55.775Z,101688.53
2024-02-18T01:06:58.402Z,101688.31
2024-02-18T01:10:00.871Z,101687.47
2024-02-18T01:13:03.645Z,101687.34
2024-02-18T01:16:06.261Z,101691.63
2024-02-18T01:19:08.995Z,101686.72
2024-02-18T01:22:11.329Z,101689.38
2024-02-18T01:25:13.986Z,101691.22
2024-02-18T01:28:16.298Z,101695.53
2024-02-18T01:31:18.844Z,101691.28
2024-02-18T01:34:21.542Z,101702.81
2024-02-18T01:37:24.391Z,101696.06
2024-02-18T01:40:26.734Z,101699.78
2024-02-18T01:43:29.376Z,101701.47
2024-02-18T01:46:31.661Z,101704.34
2024-02-18T01:49:34.924Z,101715.59
2024-02-18T01:52:39.453Z,101707.75
2024-02-18T01:55:43.877Z,101700.81
2024-02-18T01:58:46.500Z,101709.09
2024-02-18T02:01:49.480Z,101716.56
2024-02-18T02:04:52.879Z,101708.47
2024-02-18T02:07:55.626Z,101708.88
2024-02-18T02:10:59.752Z,101710.91
2024-02-18T02:14:03.209Z,101719.69
2024-02-18T02:17:06.397Z,101715.41
2024-02-18T02:20:12.701Z,101713.12
2024-02-18T02:23:15.305Z,101701.09
2024-02-18T02:26:21.403Z,101712.91
2024-02-18T02:29:24.634Z,101703.25
2024-02-18T02:32:26.968Z,101708.94
2024-02-18T02:35:29.765Z,101701.06
2024-02-18T02:38:33.672Z,101703.44
2024-02-18T02:41:36.230Z,101701.37
2024-02-18T02:44:38.501Z,101694.16
2024-02-18T02:47:41.075Z,101704.53
2024-02-18T02:50:43.322Z,101704.53
2024-02-18T02:53:46.916Z,101706.00
2024-02-18T02:56:49.066Z,101716.09
2024-02-18T02:59:51.653Z,101705.84
2024-02-18T03:02:53.890Z,101705.34
2024-02-18T03:05:56.448Z,101711.22
2024-02-18T03:08:58.695Z,101721.63
2024-02-18T03:12:01.264Z,101726.81
2024-02-18T03:15:03.901Z,101731.09
2024-02-18T03:18:06.924Z,101726.81
2024-02-18T03:21:11.400Z,101732.06
2024-02-18T03:24:14.269Z,101752.25
2024-02-18T03:27:16.704Z,101748.25
2024-02-18T03:30:19.504Z,101755.91
2024-02-18T03:33:21.899Z,101750.00
2024-02-18T03:36:24.690Z,101749.91
2024-02-18T03:39:27.045Z,101753.72
2024-02-18T03:42:29.715Z,101758.19
2024-02-18T03:45:32.139Z,101759.31
2024-02-18T03:48:34.684Z,101766.63
2024-02-18T03:51:37.028Z,101768.59
2024-02-18T03:54:40.679Z,101763.62
2024-02-18T03:57:43.806Z,101769.81
2024-02-18T04:00:49.547Z,101768.56
2024-02-18T04:03:52.160Z,101764.44
2024-02-18T04:06:54.727Z,101768.72
2024-02-18T04:09:57.255Z,101765.72
2024-02-18T04:13:00.913Z,101765.09
2024-02-18T04:16:04.384Z,101762.97
2024-02-18T04:19:07.880Z,101762.22
2024-02-18T04:22:10.681Z,101760.62
2024-02-18T04:25:13.129Z,101758.19
2024-02-18T04:28:15.666Z,101756.78
2024-02-18T04:31:18.352Z,101758.06
2024-02-18T04:34:21.032Z,101754.97
2024-02-18T04:37:23.419Z,101747.44
2024-02-18T04:40:26.904Z,101754.66
2024-02-18T04:43:29.239Z,101757.19
2024-02-18T04:46:31.914Z,101757.81
2024-02-18T04:49:34.274Z,101757.81
2024-02-18T04:52:39.082Z,101765.56
2024-02-18T04:55:41.381Z,101760.59
2024-02-18T04:58:44.004Z,101770.94
2024-02-18T05:01:49.737Z,101765.03
2024-02-18T05:04:52.760Z,101772.81
2024-02-18T05:07:54.978Z,101757.34
2024-02-18T05:10:58.500Z,101756.31
2024-02-18T05:14:01.202Z,101764.72
2024-02-18T05:17:04.797Z,101753.88
2024-02-18T05:20:10.884Z,101759.03
2024-02-18T05:23:13.810Z,101756.88
2024-02-18T05:26:16.491Z,101772.03
2024-02-18T05:29:19.146Z,101767.59
2024-02-18T05:32:23.396Z,101767.75
2024-02-18T05:35:26.275Z,101773.16
2024-02-18T05:38:28.604Z,101769.31
2024-02-18T05:41:31.127Z,101770.13
2024-02-18T05:44:34.000Z,101772.22
2024-02-18T05:47:36.592Z,101775.75
2024-02-18T05:50:38.883Z,101770.59
2024-02-18T05:53:41.420Z,101781.59
2024-02-18T05:56:43.722Z,101788.75
2024-02-18T05:59:46.428Z,101791.16
2024-02-18T06:02:48.728Z,101790.13
2024-02-18T06:05:51.816Z,101795.38
2024-02-18T06:08:54.121Z,101798.66
2024-02-18T06:11:56.718Z,101797.72
2024-02-18T06:14:59.037Z,101797.75
2024-02-18T06:18:01.824Z,101804.62
2024-02-18T06:21:05.405Z,101805.41
2024-02-18T06:24:07.936Z,101813.66
2024-02-18T06:27:10.152Z,101814.78
2024-02-18T06:30:13.541Z,101820.00
2024-02-18T06:33:16.047Z,101823.06
2024-02-18T06:36:18.645Z,101824.28
2024-02-18T06:39:24.301Z,101814.56
2024-02-18T06:42:28.369Z,101817.94
2024-02-18T06:45:30.738Z,101815.34
2024-02-18T06:48:33.577Z,101821.91
2024-02-18T06:51:35.992Z,101822.12
2024-02-18T06:54:38.606Z,101825.66
2024-02-18T06:57:44.296Z,101820.94
2024-02-18T07:00:47.124Z,101823.69
2024-02-18T07:03:49.710Z,101821.25
2024-02-18T07:06:52.321Z,101827.47
2024-02-18T07:09:54.619Z,101815.81
2024-02-18T07:12:57.404Z,101822.06
2024-02-18T07:15:59.855Z,101822.75
2024-02-18T07:19:02.581Z,101824.50
2024-02-18T07:22:07.133Z,101829.84
2024-02-18T07:25:11.171Z,101829.59
2024-02-18T07:28:13.613Z,101829.16
2024-02-18T07:31:18.212Z,101825.72
2024-02-18T07:34:21.917Z,101834.81
2024-02-18T07:37:24.760Z,101826.75
2024-02-18T07:40:26.922Z,101828.34
2024-02-18T07:43:29.668Z,101828.88
2024-02-18T07:46:32.407Z,101831.56
2024-02-18T07:49:34.968Z,101829.78
2024-02-18T07:52:37.289Z,101837.22
2024-02-18T07:55:40.183Z,101831.34
2024-02-18T07:58:42.371Z,101834.38
2024-02-18T08:01:46.565Z,101837.53
2024-02-18T08:04:49.511Z,101840.75
2024-02-18T08:07:51.875Z,101839.94
2024-02-18T08:10:54.414Z,101845.06
2024-02-18T08:13:56.738Z,101833.34
2024-02-18T08:16:59.369Z,101842.28
2024-02-18T08:20:01.825Z,101834.66
2024-02-18T08:23:04.943Z,101843.06
2024-02-18T08:26:08.937Z,101840.75
2024-02-18T08:29:11.605Z,101852.59
2024-02-18T08:32:13.787Z,101847.13
2024-02-18T08:35:16.379Z,101854.34
2024-02-18T08:38:18.693Z,101853.50
2024-02-18T08:41:22.122Z,101848.84
2024-02-18T08:44:24.467Z,101856.59
2024-02-18T08:47:27.088Z,101857.75
2024-02-18T08:50:31.592Z,101859.53
2024-02-18T08:53:34.548Z,101859.22
2024-02-18T08:56:36.774Z,101860.69
2024-02-18T08:59:39.382Z,101859.09
2024-02-18T09:02:41.643Z,101861.41
2024-02-18T09:05:44.288Z,101865.84
2024-02-18T09:08:46.607Z,101872.62
2024-02-18T09:11:49.132Z,101861.81
2024-02-18T09:14:51.489Z,101870.31
2024-02-18T09:17:54.463Z,101861.59
2024-02-18T09:20:57.190Z,101871.78
2024-02-18T09:23:59.840Z,101871.13
2024-02-18T09:27:02.077Z,101875.16
2024-02-18T09:30:05.542Z,101877.13
2024-02-18T09:33:08.732Z,101870.84
2024-02-18T09:36:11.460Z,101867.34
2024-02-18T09:39:13.778Z,101870.16
2024-02-18T09:42:16.494Z,101866.59
2024-02-18T09:45:27.271Z,101866.09
2024-02-18T09:48:31.170Z,101865.66
2024-02-18T09:51:35.329Z,101859.22
2024-02-18T09:54:38.074Z,101862.97
2024-02-18T09:57:40.446Z,101863.03
2024-02-18T10:00:43.113Z,101862.19
2024-02-18T10:03:46.125Z,101865.25
2024-02-18T10:06:48.789Z,101864.25
2024-02-18T10:09:52.345Z,101862.03
2024-02-18T10:12:55.097Z,101871.56
2024-02-18T10:16:00.274Z,101865.66
2024-02-18T10:19:02.839Z,101854.56
2024-02-18T10:22:07.204Z,101857.31
2024-02-18T10:25:11.067Z,101849.50
2024-02-18T10:28:16.684Z,101848.94
2024-02-18T10:31:18.968Z,101849.91
2024-02-18T10:34:21.996Z,101848.03
2024-02-18T10:37:31.056Z,101842.31
2024-02-18T10:40:39.962Z,101832.72
2024-02-18T10:43:52.313Z,101832.72
2024-02-18T10:46:56.472Z,101831.31
2024-02-18T10:50:07.180Z,101832.88
2024-02-18T10:53:26.613Z,101831.03
2024-02-18T10:56:29.305Z,101827.41
2024-02-18T10:59:42.412Z,101828.75
2024-02-18T11:02:59.354Z,101822.84
2024-02-18T11:06:02.894Z,101816.53
2024-02-18T11:09:09.660Z,101812.91
2024-02-18T11:12:14.807Z,101808.28
2024-02-18T11:15:17.134Z,101803.53
2024-02-18T11:18:21.851Z,101798.69
2024-02-18T11:21:24.860Z,101798.19
2024-02-18T11:24:28.377Z,101795.63
2024-02-18T11:27:31.080Z,101791.59
2024-02-18T11:30:33.964Z,101791.03
2024-02-18T11:33:36.978Z,101784.81
2024-02-18T11:36:39.615Z,101783.66
2024-02-18T11:39:41.908Z,101773.28
2024-02-18T11:42:46.018Z,101766.66
2024-02-18T11:45:48.391Z,101772.13
2024-02-18T11:48:52.123Z,101768.87
2024-02-18T11:51:54.508Z,101776.13
2024-02-18T11:54:57.181Z,101767.19
2024-02-18T11:57:59.534Z,101759.13
2024-02-18T12:01:04.922Z,101765.47
2024-02-18T12:04:07.732Z,101766.41
2024-02-18T12:07:11.284Z,101759.44
2024-02-18T12:10:14.473Z,101753.00
2024-02-18T12:13:16.876Z,101745.31
2024-02-18T12:16:19.866Z,101744.31
2024-02-18T12:19:22.387Z,101736.25
2024-02-18T12:22:28.180Z,101741.72
2024-02-18T12:25:37.008Z,101743.34
2024-02-18T12:28:39.572Z,101738.16
2024-02-18T12:31:44.593Z,101741.22
2024-02-18T12:34:50.138Z,101736.28
2024-02-18T12:37:52.558Z,101731.81
2024-02-18T12:40:57.992Z,101740.31
2024-02-18T12:44:40.626Z,101730.47
2024-02-18T12:47:23.570Z,101726.78
2024-02-18T12:50:29.204Z,101723.59
2024-02-18T12:53:31.882Z,101724.13
2024-02-18T12:56:34.197Z,101717.63
2024-02-18T12:59:38.208Z,101712.97
2024-02-18T13:02:41.801Z,101710.12
2024-02-18T13:05:44.380Z,101714.06
2024-02-18T13:08:46.747Z,101710.75
2024-02-18T13:11:49.779Z,101711.34
2024-02-18T13:14:52.476Z,101706.56
2024-02-18T13:17:55.064Z,101700.72
2024-02-18T13:20:57.377Z,101707.56
2024-02-18T13:23:59.904Z,101695.81
2024-02-18T13:27:02.351Z,101693.56
2024-02-18T13:30:06.517Z,101694.41
2024-02-18T13:33:09.039Z,101697.09
2024-02-18T13:36:12.735Z,101697.44
2024-02-18T13:39:18.589Z,101688.38
2024-02-18T13:42:22.336Z,101682.34
2024-02-18T13:45:25.567Z,101672.66
2024-02-18T13:48:28.943Z,101681.91
2024-02-18T13:51:34.092Z,101675.34
2024-02-18T13:54:36.730Z,101675.75
2024-02-18T13:57:39.064Z,101680.09
2024-02-18T14:00:41.880Z,101682.34
2024-02-18T14:03:45.800Z,101670.19
2024-02-18T14:06:48.237Z,101674.28
2024-02-18T14:09:50.879Z,101669.75
2024-02-18T14:12:53.262Z,101671.41
2024-02-18T14:15:56.958Z,101674.72
2024-02-18T14:19:00.350Z,101663.13
2024-02-18T14:22:03.091Z,101661.13
2024-02-18T14:25:07.108Z,101666.00
2024-02-18T14:28:12.749Z,101662.41
2024-02-18T14:31:15.271Z,101662.78
2024-02-18T14:34:18.124Z,101664.16
2024-02-18T14:37:22.176Z,101656.47
2024-02-18T14:40:25.554Z,101661.28
2024-02-18T14:43:27.847Z,101656.22
2024-02-18T14:46:30.418Z,101656.06
2024-02-18T14:49:39.059Z,101662.53
2024-02-18T14:52:47.402Z,101663.00
2024-02-18T14:55:49.567Z,101663.91
2024-02-18T14:58:52.189Z,101657.28
2024-02-18T15:01:54.594Z,101669.12
2024-02-18T15:04:57.318Z,101661.63
2024-02-18T15:07:59.920Z,101665.75
2024-02-18T15:11:02.510Z,101668.53
2024-02-18T15:14:04.778Z,101672.94
2024-02-18T15:17:10.549Z,101653.53
2024-02-18T15:20:12.894Z,101651.06
2024-02-18T15:23:15.637Z,101652.25
2024-02-18T15:26:17.991Z,101645.66
2024-02-18T15:29:20.615Z,101647.06
2024-02-18T15:32:22.858Z,101650.47
2024-02-18T15:35:25.431Z,101654.81
2024-02-18T15:38:29.340Z,101654.59
2024-02-18T15:41:31.958Z,101651.53
2024-02-18T15:44:34.291Z,101651.09
2024-02-18T15:47:36.734Z,101647.25
2024-02-18T15:50:39.013Z,101649.16
2024-02-18T15:53:42.238Z,101635.75
2024-02-18T15:56:44.587Z,101641.53
2024-02-18T15:59:47.327Z,101635.84
2024-02-18T16:02:49.703Z,101636.81
2024-02-18T16:05:52.504Z,101630.84
2024-02-18T16:08:54.821Z,101632.91
2024-02-18T16:11:57.440Z,101622.34
2024-02-18T16:14:59.824Z,101624.09
2024-02-18T16:18:02.526Z,101627.84
2024-02-18T16:21:05.637Z,101626.41
2024-02-18T16:24:08.256Z,101625.41
2024-02-18T16:27:10.462Z,101624.09
2024-02-18T16:30:16.879Z,101624.03
2024-02-18T16:33:19.169Z,101627.25
2024-02-18T16:36:22.166Z,101628.50
2024-02-18T16:39:24.522Z,101623.97
2024-02-18T16:42:29.644Z,101631.50
2024-02-18T16:45:32.000Z,101620.72
2024-02-18T16:48:37.295Z,101615.75
2024-02-18T16:51:45.239Z,101626.66
2024-02-18T16:54:48.646Z,101622.56
2024-02-18T16:57:50.839Z,101624.84
2024-02-18T17:00:53.804Z,101619.97
2024-02-18T17:03:56.373Z,101628.66
2024-02-18T17:06:59.247Z,101626.41
2024-02-18T17:10:01.744Z,101632.38
2024-02-18T17:13:07.557Z,101622.94
2024-02-18T17:16:09.917Z,101627.31
2024-02-18T17:19:12.608Z,101628.44
2024-02-18T17:22:17.147Z,101625.94
2024-02-18T17:25:19.873Z,101627.59
2024-02-18T17:28:22.268Z,101622.66
2024-02-18T17:31:26.621Z,101619.38
2024-02-18T17:34:29.031Z,101621.19
2024-02-18T17:37:32.492Z,101613.78
2024-02-18T17:40:35.266Z,101606.16
2024-02-18T17:43:37.921Z,101612.72
2024-02-18T17:46:40.273Z,101615.44
2024-02-18T17:49:42.925Z,101618.19
2024-02-18T17:52:45.240Z,101619.16
2024-02-18T17:55:48.894Z,101620.34
2024-02-18T17:58:51.280Z,101625.44
2024-02-18T18:01:54.336Z,101625.44
2024-02-18T18:04:57.196Z,101620.91
2024-02-18T18:07:59.446Z,101617.38
2024-02-18T18:11:03.914Z,101622.47
2024-02-18T18:14:06.935Z,101623.53
2024-02-18T18:17:09.660Z,101620.66
2024-02-18T18:20:12.299Z,101603.25
2024-02-18T18:23:14.800Z,101616.63
2024-02-18T18:26:17.070Z,101606.28
2024-02-18T18:29:19.735Z,101615.47
2024-02-18T18:32:22.033Z,101605.19
2024-02-18T18:35:24.784Z,101604.81
2024-02-18T18:38:29.097Z,101598.38
2024-02-18T18:41:35.381Z,101594.91
2024-02-18T18:44:39.546Z,101596.94
2024-02-18T18:47:42.285Z,101594.50
2024-02-18T18:50:45.698Z,101593.81
2024-02-18T18:53:48.192Z,101590.53
2024-02-18T18:56:50.397Z,101592.97
2024-02-18T18:59:52.957Z,101589.72
2024-02-18T19:02:56.202Z,101584.88
2024-02-18T19:05:58.890Z,101570.28
2024-02-18T19:09:04.164Z,101579.16
2024-02-18T19:12:08.143Z,101572.53
2024-02-18T19:15:11.417Z,101563.69
2024-02-18T19:18:14.018Z,101565.44
2024-02-18T19:21:17.350Z,101573.53
2024-02-18T19:24:19.960Z,101574.81
2024-02-18T19:27:25.523Z,101572.09
2024-02-18T19:30:28.142Z,101562.87
2024-02-18T19:33:30.535Z,101566.56
2024-02-18T19:36:34.463Z,101576.91
2024-02-18T19:39:36.818Z,101564.09
2024-02-18T19:42:39.410Z,101574.50
2024-02-18T19:45:41.727Z,101568.31
2024-02-18T19:48:44.514Z,101558.66
2024-02-18T19:51:47.859Z,101559.53
2024-02-18T19:54:50.584Z,101556.22
2024-02-18T19:57:52.864Z,101549.84
2024-02-18T20:00:56.985Z,101549.16
2024-02-18T20:03:59.684Z,101553.03
2024-02-18T20:07:02.393Z,101555.69
2024-02-18T20:10:05.359Z,101554.00
2024-02-18T20:13:07.660Z,101549.75
2024-02-18T20:16:10.738Z,101560.09
2024-02-18T20:19:15.787Z,101549.56
2024-02-18T20:22:19.058Z,101548.81
2024-02-18T20:25:22.147Z,101546.44
2024-02-18T20:28:24.819Z,101534.63
2024-02-18T20:31:27.085Z,101535.59
2024-02-18T20:34:29.997Z,101530.47
2024-02-18T20:37:32.320Z,101526.91
2024-02-18T20:40:34.841Z,101526.06
2024-02-18T20:43:37.415Z,101529.94
2024-02-18T20:46:39.983Z,101512.56
2024-02-18T20:49:42.315Z,101517.87
2024-02-18T20:52:44.884Z,101509.41
2024-02-18T20:55:47.417Z,101498.28
2024-02-18T20:58:50.014Z,101501.63
2024-02-18T21:01:52.788Z,101504.19
2024-02-18T21:04:55.666Z,101492.16
2024-02-18T21:08:00.008Z,101489.38
2024-02-18T21:11:03.301Z,101485.00
2024-02-18T21:14:05.647Z,101477.53
2024-02-18T21:17:08.223Z,101476.97
2024-02-18T21:20:11.607Z,101472.81
2024-02-18T21:23:14.172Z,101467.84
2024-02-18T21:26:22.930Z,101470.06
2024-02-18T21:29:25.574Z,101471.91
2024-02-18T21:32:27.816Z,101474.66
2024-02-18T21:35:30.449Z,101471.53
2024-02-18T21:38:32.697Z,101474.84
2024-02-18T21:41:35.234Z,101472.25
2024-02-18T21:44:37.503Z,101470.50
2024-02-18T21:47:40.116Z,101468.03
2024-02-18T21:50:42.364Z,101463.25
2024-02-18T21:53:45.754Z,101467.69
2024-02-18T21:56:47.953Z,101463.41
2024-02-18T21:59:50.633Z,101462.22
2024-02-18T22:02:52.811Z,101453.53
2024-02-18T22:05:55.363Z,101451.34
2024-02-18T22:08:57.728Z,101446.34
2024-02-18T22:12:00.187Z,101443.13
2024-02-18T22:15:02.931Z,101436.22
2024-02-18T22:18:06.420Z,101439.78
2024-02-18T22:21:08.715Z,101439.75
2024-02-18T22:24:11.253Z,101428.44
2024-02-18T22:27:13.635Z,101434.00
2024-02-18T22:30:17.199Z,101432.31
2024-02-18T22:33:19.634Z,101431.62
2024-02-18T22:36:22.297Z,101438.56
2024-02-18T22:39:24.583Z,101432.47
2024-02-18T22:42:27.144Z,101431.03
2024-02-18T22:45:30.530Z,101435.62
2024-02-18T22:48:33.610Z,101443.59
2024-02-18T22:51:36.367Z,101437.22
2024-02-18T22:54:38.974Z,101437.59
2024-02-18T22:57:41.413Z,101438.31
2024-02-18T23:00:44.661Z,101441.81
2024-02-18T23:03:47.090Z,101442.72
2024-02-18T23:06:49.694Z,101447.37
2024-02-18T23:09:52.146Z,101450.03
2024-02-18T23:12:54.775Z,101450.63
2024-02-18T23:15:57.251Z,101450.31
2024-02-18T23:19:00.774Z,101440.16
2024-02-18T23:22:03.140Z,101443.37
2024-02-18T23:25:06.089Z,101440.87
2024-02-18T23:28:08.656Z,101430.59
2024-02-18T23:31:11.232Z,101428.59
2024-02-18T23:34:13.654Z,101426.06
2024-02-18T23:37:16.435Z,101424.53
2024-02-18T23:40:19.098Z,101418.53
2024-02-18T23:43:22.194Z,101426.75
2024-02-18T23:46:24.519Z,101425.81
2024-02-18T23:49:27.550Z,101418.94
2024-02-18T23:52:29.751Z,101416.97
2024-02-18T23:55:32.201Z,101411.50
2024-02-18T23:58:34.629Z,101407.22
